Adena, OH

9:44 AM EDT on September 01, 2014 (GMT -0400)
Washington County | Change Station
CLOSE
Current Station
Airport
Location: Washington,
Elevation: 1184 ft
Nearby Weather Stations

Elev 1184 ft 40.14 °N, 80.29 °W | Updated 9 minutes ago

Overcast
Overcast
73 °F
Feels Like 73 °F
N
5
Wind Variable Wind from SW

Today
High -- | Low -- °F
--% Chance of Precip.
Yesterday
High -- | Low -- °F
Precip. -- in
6:50 AM 7:55 PM
Waxing Crescent, 41% visible
Pressure 30.05 in
Visibility 10.0 miles
Clouds Scattered Clouds 800 ft
Mostly Cloudy 1300 ft
Overcast 3600 ft
Dew Point 70 °F
Humidity 88%
Rainfall 0.00 in
Snow Depth Not available.
UV 1 out of 12
Pollen 9.20 out of 12
Air Quality Not available.
Flu Activity Not available.
METAR KAFJ 011335Z AUTO 23004KT 10SM SCT008 BKN013 OVC036 23/21 A3005 RMK AO1

More Conditions Fewer Conditions

Pressure 30.05 in
Visibility 10.0 miles
Clouds Scattered Clouds 800 ft
Mostly Cloudy 1300 ft
Overcast 3600 ft
Dew Point 70 °F
Humidity 88%
Rainfall 0.00 in
Snow Depth Not available.
UV 1 out of 12
Pollen 9.20 out of 12
Air Quality Not available.
Flu Activity Not available.
METAR KAFJ 011335Z AUTO 23004KT 10SM SCT008 BKN013 OVC036 23/21 A3005 RMK AO1

More Conditions Fewer Conditions

10-Day Weather Forecast

Almanac

Astronomy

Sep. 01, 2014 Rise Set
Actual Time 6:50 AM EDT 7:55 PM EDT
Civil Twilight 6:23 AM EDT 8:22 PM EDT
Nautical Twilight 5:49 AM EDT 8:56 PM EDT
Astronomical Twilight 5:15 AM EDT 9:30 PM EDT
Moon 1:35 PM EDT 11:54 PM EDT
Length of Visible Light 13h 59m
Length of Day
13h 04m
Tomorrow will be 2m 34s shorter.
Waxing Crescent, 41% of the Moon is Illuminated
Today
Waxing Crescent
Sep 2
First Quarter
Sep 8
Full
Sep 15
Last Quarter
Sep 24
New

Today's Extremes

State Highs State Lows

Community

WunderPhotos

Upload Photos

1,749,222 photos uploaded!

Nearby

Snow Depth

Station Depth Elevation
No new snow has been reported.

Earthquake Activity

City Distance Mag. Time & Date
No recent earthquake activity has been reported nearby.
Minimum magnitude displayed is 2.5.

Coastal Water Temperatures

Place Temperature
No Stations Reporting

Nearby Weather Stations